createdAt,value
2023-03-27T00:00:27.170Z,100.00
2023-03-27T00:02:54.653Z,100.00
2023-03-27T00:05:22.108Z,100.00
2023-03-27T00:07:51.734Z,100.00
2023-03-27T00:10:18.786Z,100.00
2023-03-27T00:12:45.740Z,100.00
2023-03-27T00:15:17.605Z,100.00
2023-03-27T00:17:47.708Z,100.00
2023-03-27T00:20:17.382Z,100.00
2023-03-27T00:22:44.415Z,100.00
2023-03-27T00:25:11.729Z,100.00
2023-03-27T00:27:38.759Z,100.00
2023-03-27T00:30:06.516Z,100.00
2023-03-27T00:32:34.048Z,100.00
2023-03-27T00:35:01.167Z,100.00
2023-03-27T00:37:28.241Z,100.00
2023-03-27T00:39:55.776Z,100.00
2023-03-27T00:42:24.253Z,100.00
2023-03-27T00:44:52.831Z,100.00
2023-03-27T00:47:34.262Z,100.00
2023-03-27T00:50:06.734Z,100.00
2023-03-27T00:52:33.837Z,100.00
2023-03-27T00:55:24.832Z,100.00
2023-03-27T00:58:41.844Z,100.00
2023-03-27T01:01:27.315Z,100.00
2023-03-27T01:03:54.916Z,100.00
2023-03-27T01:06:22.365Z,100.00
2023-03-27T01:08:49.480Z,100.00
2023-03-27T01:11:22.939Z,100.00
2023-03-27T01:14:00.940Z,100.00
2023-03-27T01:16:36.045Z,100.00
2023-03-27T01:19:03.013Z,100.00
2023-03-27T01:21:52.019Z,100.00
2023-03-27T01:24:38.588Z,100.00
2023-03-27T01:27:10.618Z,100.00
2023-03-27T01:29:47.052Z,100.00
2023-03-27T01:32:38.773Z,100.00
2023-03-27T01:35:20.795Z,100.00
2023-03-27T01:38:09.817Z,100.00
2023-03-27T01:40:44.102Z,100.00
2023-03-27T01:43:19.180Z,100.00
2023-03-27T01:45:54.748Z,100.00
2023-03-27T01:48:39.934Z,100.00
2023-03-27T01:51:17.137Z,100.00
2023-03-27T01:54:13.848Z,100.00
2023-03-27T01:57:22.830Z,100.00
2023-03-27T02:00:17.576Z,100.00
2023-03-27T02:03:16.061Z,100.00
2023-03-27T02:05:53.201Z,100.00
2023-03-27T02:08:30.775Z,100.00
2023-03-27T02:11:08.366Z,100.00
2023-03-27T02:14:10.109Z,100.00
2023-03-27T02:16:46.373Z,100.00
2023-03-27T02:19:21.061Z,100.00
2023-03-27T02:21:49.525Z,100.00
2023-03-27T02:24:18.921Z,100.00
2023-03-27T02:26:55.520Z,100.00
2023-03-27T02:29:45.757Z,100.00
2023-03-27T02:32:19.268Z,100.00
2023-03-27T02:35:23.887Z,100.00
2023-03-27T02:38:30.914Z,100.00
2023-03-27T02:41:34.781Z,100.00
2023-03-27T02:44:31.817Z,100.00
2023-03-27T02:47:11.939Z,100.00
2023-03-27T02:49:56.306Z,100.00
2023-03-27T02:52:48.320Z,100.00
2023-03-27T02:55:42.332Z,100.00
2023-03-27T02:58:53.854Z,100.00
2023-03-27T03:01:46.942Z,100.00
2023-03-27T03:04:25.382Z,100.00
2023-03-27T03:06:58.989Z,100.00
2023-03-27T03:09:26.079Z,100.00
2023-03-27T03:11:54.427Z,100.00
2023-03-27T03:14:26.803Z,100.00
2023-03-27T03:16:53.821Z,100.00
2023-03-27T03:19:24.062Z,100.00
2023-03-27T03:21:51.280Z,100.00
2023-03-27T03:24:19.102Z,100.00
2023-03-27T03:26:50.107Z,100.00
2023-03-27T03:29:21.553Z,100.00
2023-03-27T03:32:06.430Z,100.00
2023-03-27T03:34:33.488Z,100.00
2023-03-27T03:37:00.516Z,100.00
2023-03-27T03:39:31.115Z,100.00
2023-03-27T03:41:58.060Z,100.00
2023-03-27T03:44:24.913Z,100.00
2023-03-27T03:46:53.138Z,100.00
2023-03-27T03:49:21.580Z,100.00
2023-03-27T03:52:03.402Z,100.00
2023-03-27T03:54:52.866Z,100.00
2023-03-27T03:57:56.913Z,100.00
2023-03-27T04:00:58.910Z,100.00
2023-03-27T04:04:08.922Z,100.00
2023-03-27T04:07:06.794Z,100.00
2023-03-27T04:09:38.171Z,100.00
2023-03-27T04:12:08.554Z,100.00
2023-03-27T04:14:46.092Z,100.00
2023-03-27T04:17:35.936Z,100.00
2023-03-27T04:20:06.164Z,100.00
2023-03-27T04:22:37.905Z,100.00
2023-03-27T04:25:08.543Z,100.00
2023-03-27T04:27:35.800Z,100.00
2023-03-27T04:30:16.255Z,100.00
2023-03-27T04:33:06.430Z,100.00
2023-03-27T04:35:40.125Z,100.00
2023-03-27T04:38:17.143Z,100.00
2023-03-27T04:40:49.448Z,100.00
2023-03-27T04:43:17.986Z,100.00
2023-03-27T04:45:48.331Z,100.00
2023-03-27T04:48:16.068Z,100.00
2023-03-27T04:50:51.353Z,100.00
2023-03-27T04:53:52.981Z,100.00
2023-03-27T04:56:53.962Z,100.00
2023-03-27T04:59:37.156Z,100.00
2023-03-27T05:02:45.096Z,100.00
2023-03-27T05:06:03.010Z,100.00
2023-03-27T05:08:44.769Z,100.00
2023-03-27T05:11:23.027Z,100.00
2023-03-27T05:14:09.933Z,100.00
2023-03-27T05:16:52.340Z,100.00
2023-03-27T05:19:21.164Z,100.00
2023-03-27T05:22:17.954Z,100.00
2023-03-27T05:25:27.952Z,100.00
2023-03-27T05:28:11.478Z,100.00
2023-03-27T05:30:38.570Z,100.00
2023-03-27T05:33:17.628Z,100.00
2023-03-27T05:35:48.424Z,100.00
2023-03-27T05:38:16.370Z,100.00
2023-03-27T05:40:53.361Z,100.00
2023-03-27T05:43:41.949Z,100.00
2023-03-27T05:46:23.191Z,100.00
2023-03-27T05:49:00.182Z,100.00
2023-03-27T05:51:48.038Z,100.00
2023-03-27T05:54:48.985Z,100.00
2023-03-27T05:57:29.463Z,100.00
2023-03-27T06:00:00.282Z,100.00
2023-03-27T06:02:27.890Z,100.00
2023-03-27T06:05:01.470Z,100.00
2023-03-27T06:07:34.351Z,100.00
2023-03-27T06:10:07.740Z,100.00
2023-03-27T06:12:46.436Z,100.00
2023-03-27T06:15:29.449Z,100.00
2023-03-27T06:18:09.786Z,100.00
2023-03-27T06:20:39.037Z,100.00
2023-03-27T06:23:08.466Z,100.00
2023-03-27T06:25:39.501Z,100.00
2023-03-27T06:28:35.075Z,100.00
2023-03-27T06:31:37.063Z,100.00
2023-03-27T06:34:24.075Z,100.00
2023-03-27T06:37:04.444Z,100.00
2023-03-27T06:39:37.638Z,100.00
2023-03-27T06:42:07.757Z,100.00
2023-03-27T06:44:43.720Z,100.00
2023-03-27T06:47:44.390Z,100.00
2023-03-27T06:50:38.537Z,100.00
2023-03-27T06:53:42.153Z,100.00
2023-03-27T06:56:24.524Z,100.00
2023-03-27T06:59:10.432Z,100.00
2023-03-27T07:01:59.065Z,100.00
2023-03-27T07:05:08.493Z,100.00
2023-03-27T07:07:41.680Z,100.00
2023-03-27T07:10:12.300Z,100.00
2023-03-27T07:13:02.008Z,100.00
2023-03-27T07:15:42.657Z,100.00
2023-03-27T07:18:11.532Z,100.00
2023-03-27T07:20:38.965Z,100.00
2023-03-27T07:23:11.934Z,100.00
2023-03-27T07:26:14.041Z,100.00
2023-03-27T07:29:35.983Z,100.00
2023-03-27T07:32:34.175Z,100.00
2023-03-27T07:35:05.548Z,100.00
2023-03-27T07:38:03.264Z,100.00
2023-03-27T07:40:39.835Z,100.00
2023-03-27T07:43:37.154Z,100.00
2023-03-27T07:46:25.027Z,95.18
2023-03-27T07:49:39.934Z,94.66
2023-03-27T07:52:44.183Z,91.78
2023-03-27T07:55:45.051Z,91.55
2023-03-27T07:58:25.877Z,97.75
2023-03-27T08:01:02.668Z,92.84
2023-03-27T08:03:32.408Z,95.26
2023-03-27T08:06:01.235Z,100.00
2023-03-27T08:08:30.905Z,96.02
2023-03-27T08:11:02.544Z,92.48
2023-03-27T08:13:34.476Z,96.37
2023-03-27T08:16:12.558Z,100.00
2023-03-27T08:18:39.618Z,93.14
2023-03-27T08:21:09.403Z,95.50
2023-03-27T08:23:51.127Z,93.47
2023-03-27T08:27:02.053Z,96.32
2023-03-27T08:29:47.699Z,93.79
2023-03-27T08:32:14.726Z,92.10
2023-03-27T08:34:43.810Z,98.12
2023-03-27T08:37:11.421Z,95.32
2023-03-27T08:40:05.086Z,90.25
2023-03-27T08:43:09.066Z,96.07
2023-03-27T08:46:15.097Z,90.48
2023-03-27T08:49:15.134Z,91.84
2023-03-27T08:52:08.924Z,91.31
2023-03-27T08:55:05.128Z,92.29
2023-03-27T08:58:14.072Z,89.50
2023-03-27T09:01:18.943Z,90.76
2023-03-27T09:04:12.917Z,87.74
2023-03-27T09:07:00.987Z,90.74
2023-03-27T09:09:39.127Z,85.35
2023-03-27T09:13:04.226Z,92.29
2023-03-27T09:16:29.134Z,89.59
2023-03-27T09:19:25.830Z,92.22
2023-03-27T09:22:02.728Z,89.56
2023-03-27T09:25:50.321Z,87.27
2023-03-27T09:28:59.403Z,81.54
2023-03-27T09:31:32.981Z,82.32
2023-03-27T09:34:07.230Z,75.65
2023-03-27T09:36:36.052Z,65.61
2023-03-27T09:39:29.060Z,66.99
2023-03-27T09:42:41.237Z,62.81
2023-03-27T09:45:12.748Z,52.99
2023-03-27T09:48:02.232Z,43.77
2023-03-27T09:50:46.215Z,39.10
2023-03-27T09:53:50.121Z,40.60
2023-03-27T09:56:35.483Z,40.59
2023-03-27T09:59:19.551Z,39.77
2023-03-27T10:01:48.412Z,37.00
2023-03-27T10:04:20.317Z,35.58
2023-03-27T10:07:17.164Z,35.53
2023-03-27T10:10:38.115Z,35.98
2023-03-27T10:13:47.034Z,34.94
2023-03-27T10:16:21.040Z,34.58
2023-03-27T10:19:05.773Z,32.80
2023-03-27T10:21:44.724Z,34.00
2023-03-27T10:24:49.148Z,35.23
2023-03-27T10:27:52.953Z,35.39
2023-03-27T10:30:38.126Z,33.77
2023-03-27T10:33:41.417Z,32.58
2023-03-27T10:37:01.226Z,34.27
2023-03-27T10:40:03.228Z,34.87
2023-03-27T10:42:48.881Z,32.34
2023-03-27T10:45:18.953Z,32.89
2023-03-27T10:47:51.853Z,33.00
2023-03-27T10:50:45.648Z,32.79
2023-03-27T10:54:03.250Z,31.04
2023-03-27T10:56:57.128Z,31.11
2023-03-27T10:59:50.826Z,31.35
2023-03-27T11:02:58.301Z,30.39
2023-03-27T11:05:37.299Z,30.79
2023-03-27T11:08:23.937Z,30.29
2023-03-27T11:11:22.374Z,29.72
2023-03-27T11:14:47.144Z,29.18
2023-03-27T11:17:38.775Z,29.06
2023-03-27T11:20:46.042Z,28.79
2023-03-27T11:24:10.350Z,29.58
2023-03-27T11:26:57.295Z,29.77
2023-03-27T11:29:32.233Z,31.30
2023-03-27T11:32:27.174Z,29.76
2023-03-27T11:35:27.838Z,30.15
2023-03-27T11:38:21.840Z,29.80
2023-03-27T11:41:00.125Z,30.62
2023-03-27T11:43:27.743Z,29.45
2023-03-27T11:46:16.081Z,29.20
2023-03-27T11:48:56.664Z,27.65
2023-03-27T11:51:32.741Z,25.70
2023-03-27T11:54:35.208Z,25.18
2023-03-27T11:57:40.203Z,27.07
2023-03-27T12:00:36.616Z,27.78
2023-03-27T12:03:26.046Z,27.45
2023-03-27T12:06:46.173Z,26.96
2023-03-27T12:09:59.796Z,26.33
2023-03-27T12:13:03.165Z,25.58
2023-03-27T12:15:52.056Z,25.44
2023-03-27T12:18:35.905Z,25.11
2023-03-27T12:21:14.158Z,25.74
2023-03-27T12:24:17.237Z,24.52
2023-03-27T12:28:03.975Z,23.53
2023-03-27T12:31:16.439Z,23.38
2023-03-27T12:34:03.367Z,24.12
2023-03-27T12:36:48.363Z,23.70
2023-03-27T12:39:26.589Z,23.53
2023-03-27T12:41:57.666Z,24.13
2023-03-27T12:44:32.615Z,23.00
2023-03-27T12:47:20.222Z,23.30
2023-03-27T12:50:27.556Z,24.22
2023-03-27T12:52:57.230Z,22.40
2023-03-27T12:55:51.304Z,22.33
2023-03-27T12:58:43.143Z,21.98
2023-03-27T13:04:37.054Z,22.28
2023-03-27T13:07:14.064Z,22.61
2023-03-27T13:10:11.969Z,23.49
2023-03-27T13:13:18.583Z,24.17
2023-03-27T13:16:01.525Z,23.55
2023-03-27T13:18:37.866Z,23.11
2023-03-27T13:21:52.706Z,22.42
2023-03-27T13:24:52.268Z,22.67
2023-03-27T13:28:43.145Z,21.99
2023-03-27T13:31:47.189Z,22.29
2023-03-27T13:34:37.457Z,21.91
2023-03-27T13:37:14.778Z,22.55
2023-03-27T13:40:02.266Z,21.59
2023-03-27T13:42:41.996Z,21.47
2023-03-27T13:45:19.577Z,21.70
2023-03-27T13:48:26.338Z,21.54
2023-03-27T13:51:20.109Z,21.38
2023-03-27T13:54:17.641Z,21.46
2023-03-27T13:57:37.237Z,20.88
2023-03-27T14:00:57.979Z,21.95
2023-03-27T14:03:49.977Z,21.32
2023-03-27T14:06:49.083Z,21.00
2023-03-27T14:09:51.867Z,21.03
2023-03-27T14:13:05.988Z,20.39
2023-03-27T14:16:25.302Z,20.43
2023-03-27T14:19:07.764Z,20.69
2023-03-27T14:22:01.025Z,20.49
2023-03-27T14:24:56.306Z,20.49
2023-03-27T14:29:05.296Z,20.47
2023-03-27T14:32:09.534Z,20.59
2023-03-27T14:35:14.294Z,21.79
2023-03-27T14:38:25.351Z,20.96
2023-03-27T14:40:59.135Z,21.75
2023-03-27T14:43:50.106Z,21.22
2023-03-27T14:46:20.183Z,21.27
2023-03-27T14:48:52.697Z,21.21
2023-03-27T14:51:33.916Z,21.21
2023-03-27T14:54:41.870Z,20.78
2023-03-27T14:57:57.776Z,20.43
2023-03-27T15:01:08.404Z,20.79
2023-03-27T15:04:18.530Z,21.61
2023-03-27T15:07:15.496Z,21.34
2023-03-27T15:10:10.376Z,21.58
2023-03-27T15:12:57.620Z,21.18
2023-03-27T15:15:27.307Z,21.23
2023-03-27T15:18:15.582Z,20.27
2023-03-27T15:21:27.323Z,20.58
2023-03-27T15:24:37.375Z,21.27
2023-03-27T15:27:41.466Z,21.26
2023-03-27T15:30:20.628Z,21.43
2023-03-27T15:32:52.608Z,20.88
2023-03-27T15:35:34.445Z,21.45
2023-03-27T15:38:03.228Z,21.13
2023-03-27T15:40:40.904Z,21.96
2023-03-27T15:43:16.554Z,22.13
2023-03-27T15:46:04.805Z,21.56
2023-03-27T15:48:40.656Z,21.74
2023-03-27T15:51:11.691Z,22.60
2023-03-27T15:54:02.500Z,21.39
2023-03-27T15:57:09.746Z,22.08
2023-03-27T15:59:53.639Z,21.36
2023-03-27T16:02:23.608Z,21.41
2023-03-27T16:04:57.027Z,21.61
2023-03-27T16:07:39.322Z,22.00
2023-03-27T16:10:07.709Z,22.32
2023-03-27T16:12:43.676Z,22.57
2023-03-27T16:15:45.416Z,21.97
2023-03-27T16:18:38.372Z,21.87
2023-03-27T16:21:40.297Z,22.03
2023-03-27T16:24:41.354Z,22.16
2023-03-27T16:27:47.326Z,21.71
2023-03-27T16:30:36.225Z,21.57
2023-03-27T16:33:03.978Z,21.26
2023-03-27T16:35:34.492Z,21.14
2023-03-27T16:38:02.139Z,21.63
2023-03-27T16:40:29.396Z,21.87
2023-03-27T16:42:56.417Z,21.89
2023-03-27T16:45:23.442Z,22.42
2023-03-27T16:47:53.055Z,21.90
2023-03-27T16:50:22.987Z,22.39
2023-03-27T16:56:12.372Z,21.51
2023-03-27T16:59:13.369Z,22.04
2023-03-27T17:01:54.935Z,22.34
2023-03-27T17:04:42.379Z,22.22
2023-03-27T17:07:27.277Z,22.09
2023-03-27T17:09:54.871Z,22.55
2023-03-27T17:12:22.028Z,22.68
2023-03-27T17:15:09.377Z,22.95
2023-03-27T17:17:50.602Z,22.61
2023-03-27T17:20:17.664Z,22.79
2023-03-27T17:22:45.732Z,23.06
2023-03-27T17:25:32.435Z,23.06
2023-03-27T17:28:33.372Z,23.17
2023-03-27T17:31:15.573Z,22.97
2023-03-27T17:33:42.655Z,23.45
2023-03-27T17:36:11.617Z,23.67
2023-03-27T17:38:41.909Z,23.78
2023-03-27T17:41:11.900Z,23.56
2023-03-27T17:43:39.664Z,23.89
2023-03-27T17:46:10.606Z,23.33
2023-03-27T17:48:37.915Z,23.41
2023-03-27T17:51:11.120Z,23.30
2023-03-27T17:53:59.510Z,24.12
2023-03-27T17:56:41.097Z,23.26
2023-03-27T17:59:10.488Z,23.55
2023-03-27T18:01:37.584Z,23.36
2023-03-27T18:04:24.513Z,23.29
2023-03-27T18:07:25.415Z,23.16
2023-03-27T18:10:08.563Z,22.86
2023-03-27T18:12:55.385Z,23.00
2023-03-27T18:15:36.140Z,22.52
2023-03-27T18:18:03.659Z,22.67
2023-03-27T18:20:30.991Z,22.82
2023-03-27T18:22:57.901Z,22.79
2023-03-27T18:25:48.389Z,22.29
2023-03-27T18:28:28.971Z,22.57
2023-03-27T18:31:00.862Z,22.36
2023-03-27T18:33:28.869Z,22.04
2023-03-27T18:35:57.379Z,22.25
2023-03-27T18:38:26.486Z,22.22
2023-03-27T18:41:13.415Z,22.52
2023-03-27T18:43:54.196Z,22.72
2023-03-27T18:46:21.272Z,22.24
2023-03-27T18:48:49.419Z,22.44
2023-03-27T18:51:36.420Z,22.60
2023-03-27T18:54:37.443Z,22.93
2023-03-27T18:57:21.500Z,23.23
2023-03-27T18:59:51.928Z,22.78
2023-03-27T19:02:24.525Z,23.26
2023-03-27T19:05:14.035Z,22.86
2023-03-27T19:08:19.488Z,22.68
2023-03-27T19:11:21.464Z,23.27
2023-03-27T19:14:28.040Z,23.19
2023-03-27T19:17:29.470Z,23.57
2023-03-27T19:20:07.463Z,22.82
2023-03-27T19:22:36.509Z,23.05
2023-03-27T19:25:28.580Z,23.54
2023-03-27T19:28:27.456Z,23.26
2023-03-27T19:30:54.425Z,23.85
2023-03-27T19:33:21.943Z,23.51
2023-03-27T19:35:52.635Z,24.06
2023-03-27T19:38:19.599Z,24.24
2023-03-27T19:41:06.546Z,24.54
2023-03-27T19:43:46.974Z,24.71
2023-03-27T19:46:16.125Z,24.70
2023-03-27T19:49:03.430Z,24.82
2023-03-27T19:52:07.622Z,24.31
2023-03-27T19:54:54.482Z,24.56
2023-03-27T19:57:34.974Z,24.37
2023-03-27T20:00:02.034Z,24.73
2023-03-27T20:02:29.443Z,24.54
2023-03-27T20:05:16.465Z,24.83
2023-03-27T20:08:17.564Z,25.37
2023-03-27T20:11:18.432Z,24.77
2023-03-27T20:13:59.665Z,25.47
2023-03-27T20:16:27.891Z,25.76
2023-03-27T20:19:03.376Z,26.18
2023-03-27T20:21:34.137Z,26.02
2023-03-27T20:24:01.311Z,26.25
2023-03-27T20:26:56.469Z,25.78
2023-03-27T20:29:36.986Z,25.90
2023-03-27T20:32:05.784Z,25.70
2023-03-27T20:34:34.799Z,26.10
2023-03-27T20:37:12.020Z,25.99
2023-03-27T20:39:47.256Z,26.23
2023-03-27T20:42:16.746Z,26.09
2023-03-27T20:44:45.127Z,26.66
2023-03-27T20:47:13.350Z,26.85
2023-03-27T20:49:57.495Z,27.11
2023-03-27T20:52:58.637Z,27.08
2023-03-27T20:55:59.399Z,27.66
2023-03-27T20:59:00.546Z,27.09
2023-03-27T21:02:02.490Z,27.33
2023-03-27T21:05:03.569Z,27.40
2023-03-27T21:07:31.994Z,28.11
2023-03-27T21:10:01.339Z,27.58
2023-03-27T21:12:29.041Z,27.57
2023-03-27T21:14:56.057Z,27.68
2023-03-27T21:17:43.628Z,27.36
2023-03-27T21:20:44.605Z,27.21
2023-03-27T21:23:25.381Z,27.25
2023-03-27T21:26:12.529Z,27.28
2023-03-27T21:28:53.469Z,27.25
2023-03-27T21:31:40.602Z,27.38
2023-03-27T21:34:41.510Z,27.63
2023-03-27T21:37:21.976Z,27.80
2023-03-27T21:39:48.830Z,28.08
2023-03-27T21:42:16.564Z,28.11
2023-03-27T21:44:45.215Z,28.90
2023-03-27T21:47:15.521Z,29.15
2023-03-27T21:49:42.419Z,28.31
2023-03-27T21:52:29.529Z,28.47
2023-03-27T21:55:30.569Z,28.10
2023-03-27T21:58:31.524Z,28.46
2023-03-27T22:01:33.102Z,28.36
2023-03-27T22:04:33.575Z,28.10
2023-03-27T22:07:14.122Z,29.16
2023-03-27T22:10:01.544Z,29.82
2023-03-27T22:12:42.360Z,29.66
2023-03-27T22:15:10.093Z,30.16
2023-03-27T22:17:38.130Z,30.40
2023-03-27T22:20:06.335Z,30.64
2023-03-27T22:22:37.329Z,31.07
2023-03-27T22:25:05.057Z,32.01
2023-03-27T22:27:53.523Z,31.79
2023-03-27T22:30:54.613Z,32.04
2023-03-27T22:33:36.452Z,31.50
2023-03-27T22:36:05.214Z,31.36
2023-03-27T22:38:33.362Z,30.74
2023-03-27T22:41:00.980Z,31.01
2023-03-27T22:43:29.091Z,30.49
2023-03-27T22:45:56.532Z,30.88
2023-03-27T22:48:23.512Z,30.34
2023-03-27T22:51:11.514Z,30.68
2023-03-27T22:54:12.544Z,30.41
2023-03-27T22:57:13.638Z,29.94
2023-03-27T22:59:54.297Z,29.55
2023-03-27T23:02:21.597Z,30.01
2023-03-27T23:04:48.562Z,29.71
2023-03-27T23:07:15.500Z,30.20
2023-03-27T23:09:42.430Z,30.61
2023-03-27T23:12:09.409Z,30.17
2023-03-27T23:14:36.432Z,31.14
2023-03-27T23:17:03.568Z,32.46
2023-03-27T23:19:30.890Z,30.85
2023-03-27T23:21:57.898Z,30.83
2023-03-27T23:24:24.841Z,32.30
2023-03-27T23:27:11.612Z,30.39
2023-03-27T23:30:12.632Z,30.82
2023-03-27T23:33:13.559Z,31.02
2023-03-27T23:36:01.778Z,31.84
2023-03-27T23:38:29.109Z,34.17
2023-03-27T23:40:57.775Z,35.29
2023-03-27T23:43:26.113Z,35.16
2023-03-27T23:45:53.810Z,35.79
2023-03-27T23:48:20.773Z,36.46
2023-03-27T23:50:48.276Z,37.99
2023-03-27T23:53:36.571Z,40.65
2023-03-27T23:56:37.627Z,40.75
2023-03-27T23:59:18.090Z,41.72
